Time;durP1;ratioP1;P1;durP2;ratioP2;P2;SDS_P1;SDS_P2;PMS_P1;PMS_P2;Temp;Humidity;BMP_temperature;BMP_pressure;BME280_temperature;BME280_humidity;BME280_pressure;Samples;Min_cycle;Max_cycle;Signal;HPM_P1;HPM_P2
2024/03/02 00:02:40;;;;;;;18.48;13.27;;;24.10;52.00;;;;;;6093374;28;83999;-54
2024/03/02 00:05:41;;;;;;;19.67;13.52;;;24.10;52.00;;;;;;6102996;28;83129;-54
2024/03/02 00:08:42;;;;;;;19.40;12.23;;;24.10;52.10;;;;;;6089115;28;83086;-54
2024/03/02 00:11:42;;;;;;;22.45;13.45;;;24.10;52.20;;;;;;6094107;28;83988;-55
2024/03/02 00:14:43;;;;;;;20.17;13.63;;;24.10;52.00;;;;;;6095870;28;83218;-59
2024/03/02 00:17:43;;;;;;;27.00;14.35;;;24.10;51.90;;;;;;6088411;28;83837;-57
2024/03/02 00:20:44;;;;;;;19.50;13.18;;;24.20;51.80;;;;;;6084024;28;83531;-57
2024/03/02 00:23:45;;;;;;;21.63;13.25;;;24.10;51.80;;;;;;6084437;28;83587;-56
2024/03/02 00:26:45;;;;;;;21.73;13.23;;;24.10;51.80;;;;;;6085212;28;84872;-57
2024/03/02 00:29:46;;;;;;;19.20;13.68;;;24.10;51.80;;;;;;6083619;28;83834;-56
2024/03/02 00:32:47;;;;;;;20.27;13.77;;;24.10;51.80;;;;;;6091810;28;83470;-56
2024/03/02 00:35:49;;;;;;;21.70;14.25;;;24.10;51.80;;;;;;6077255;28;83688;-57
2024/03/02 00:38:49;;;;;;;20.48;13.20;;;24.10;51.80;;;;;;6091401;28;82850;-57
2024/03/02 00:41:50;;;;;;;21.25;13.20;;;24.00;51.70;;;;;;6078424;28;83635;-57
2024/03/02 00:44:50;;;;;;;20.67;14.13;;;24.10;52.00;;;;;;6077874;28;83186;-54
2024/03/02 00:47:51;;;;;;;20.55;13.70;;;24.10;51.80;;;;;;6080967;28;84508;-55
2024/03/02 00:50:51;;;;;;;18.73;12.73;;;24.10;51.70;;;;;;6091103;28;84049;-55
2024/03/02 00:53:52;;;;;;;23.15;15.52;;;24.10;51.70;;;;;;6102577;28;82998;-55
2024/03/02 00:56:54;;;;;;;22.40;13.57;;;24.10;51.70;;;;;;6101528;28;83344;-56
2024/03/02 00:59:55;;;;;;;25.20;16.08;;;24.10;51.60;;;;;;6080791;28;83732;-56
2024/03/02 01:02:56;;;;;;;22.98;15.05;;;24.10;51.50;;;;;;6077915;28;84388;-55
2024/03/02 01:05:56;;;;;;;21.00;14.32;;;24.10;51.50;;;;;;6100828;28;83216;-56
2024/03/02 01:08:57;;;;;;;24.02;15.00;;;24.10;51.40;;;;;;6097602;28;83125;-55
2024/03/02 01:11:57;;;;;;;22.77;13.95;;;24.10;51.30;;;;;;6102020;28;83609;-55
2024/03/02 01:14:58;;;;;;;20.48;13.88;;;24.10;51.30;;;;;;6101169;28;83362;-56
2024/03/02 01:17:58;;;;;;;21.42;14.05;;;24.10;51.20;;;;;;6082148;28;84989;-55
2024/03/02 01:20:59;;;;;;;22.33;14.55;;;24.10;51.20;;;;;;6089610;28;83125;-55
2024/03/02 01:24:00;;;;;;;20.83;13.88;;;24.10;51.10;;;;;;6078568;28;83985;-56
2024/03/02 01:27:00;;;;;;;22.08;14.30;;;24.10;51.10;;;;;;6078008;28;83181;-57
2024/03/02 01:30:01;;;;;;;21.92;14.20;;;24.10;51.00;;;;;;6089887;28;82953;-56
2024/03/02 01:33:02;;;;;;;19.98;12.93;;;24.00;51.00;;;;;;6100454;28;83431;-60
2024/03/02 01:36:02;;;;;;;20.70;13.27;;;24.10;50.90;;;;;;6100799;28;83282;-60
2024/03/02 01:39:03;;;;;;;19.60;13.32;;;24.10;50.90;;;;;;6101887;28;83131;-60
2024/03/02 01:42:03;;;;;;;21.63;14.50;;;24.10;50.90;;;;;;6099806;28;83167;-60
2024/03/02 01:45:04;;;;;;;20.77;13.23;;;24.10;51.00;;;;;;6082204;28;83409;-60
2024/03/02 01:48:04;;;;;;;17.90;12.55;;;24.10;51.00;;;;;;6078254;28;83569;-60
2024/03/02 01:51:06;;;;;;;19.52;13.07;;;24.10;51.10;;;;;;6078008;28;83195;-59
2024/03/02 01:54:07;;;;;;;21.45;13.57;;;24.00;51.10;;;;;;6081275;28;83519;-60
2024/03/02 01:57:07;;;;;;;18.73;13.07;;;24.00;51.00;;;;;;6077623;28;82914;-60
2024/03/02 02:00:09;;;;;;;22.63;13.60;;;24.10;51.50;;;;;;6077995;28;83468;-60
2024/03/02 02:03:12;;;;;;;21.30;13.10;;;24.10;50.80;;;;;;6083376;28;83327;-59
2024/03/02 02:06:12;;;;;;;19.77;13.05;;;24.00;50.80;;;;;;6084489;28;84293;-60
2024/03/02 02:09:13;;;;;;;16.70;11.35;;;24.10;51.10;;;;;;6089695;28;83243;-60
2024/03/02 02:12:13;;;;;;;17.50;12.30;;;24.10;51.10;;;;;;6078142;28;84349;-60
2024/03/02 02:15:14;;;;;;;17.52;12.05;;;24.00;51.20;;;;;;6089523;28;85725;-60
2024/03/02 02:18:14;;;;;;;21.27;13.43;;;24.10;51.30;;;;;;6098621;28;84766;-59
2024/03/02 02:21:15;;;;;;;21.35;13.85;;;24.00;51.20;;;;;;6081921;28;83073;-60
2024/03/02 02:24:16;;;;;;;20.00;12.90;;;24.00;50.90;;;;;;6077942;28;84055;-59
2024/03/02 02:27:19;;;;;;;20.92;13.20;;;24.00;50.90;;;;;;6077040;28;85398;-59
2024/03/02 02:30:19;;;;;;;20.67;13.57;;;24.00;50.70;;;;;;6078382;28;83429;-60
2024/03/02 02:33:20;;;;;;;19.80;13.70;;;24.00;50.70;;;;;;6088530;28;83356;-59
2024/03/02 02:36:20;;;;;;;19.60;14.05;;;24.00;50.70;;;;;;6077691;28;83454;-59
2024/03/02 02:39:21;;;;;;;19.42;12.65;;;24.00;50.70;;;;;;6097715;28;83307;-59
2024/03/02 02:42:21;;;;;;;20.48;13.57;;;24.00;50.80;;;;;;6098925;28;83307;-59
2024/03/02 02:45:22;;;;;;;19.48;12.77;;;24.00;50.80;;;;;;6088318;28;84053;-60
2024/03/02 02:48:22;;;;;;;17.58;12.13;;;24.00;50.80;;;;;;6081975;28;83083;-59
2024/03/02 02:51:25;;;;;;;19.85;12.90;;;24.00;50.70;;;;;;6074839;28;85536;-59
2024/03/02 02:54:25;;;;;;;20.25;13.45;;;24.00;50.50;;;;;;6079001;28;83696;-60
2024/03/02 02:57:26;;;;;;;21.05;13.27;;;24.00;50.40;;;;;;6099997;28;83545;-61
2024/03/02 03:00:26;;;;;;;21.13;14.07;;;24.00;50.50;;;;;;6099413;28;83429;-59
2024/03/02 03:03:27;;;;;;;20.45;13.05;;;24.00;50.50;;;;;;6087029;28;83252;-59
2024/03/02 03:06:27;;;;;;;19.80;12.93;;;24.00;50.50;;;;;;6081688;28;86151;-60
2024/03/02 03:09:28;;;;;;;19.75;13.05;;;24.00;50.50;;;;;;6088075;28;83473;-59
2024/03/02 03:12:29;;;;;;;18.30;12.55;;;24.00;50.50;;;;;;6090062;28;83547;-61
2024/03/02 03:15:29;;;;;;;19.55;11.60;;;24.00;50.80;;;;;;6075827;28;83284;-60
2024/03/02 03:18:30;;;;;;;19.02;12.10;;;24.00;50.90;;;;;;6085504;28;83337;-60
2024/03/02 03:21:30;;;;;;;20.40;12.18;;;24.00;50.60;;;;;;6097494;28;84509;-60
2024/03/02 03:24:32;;;;;;;19.13;11.25;;;24.00;50.50;;;;;;6076391;28;83923;-61
2024/03/02 03:27:33;;;;;;;19.65;11.18;;;24.00;50.80;;;;;;6097062;28;83226;-62
2024/03/02 03:30:33;;;;;;;17.55;11.60;;;24.00;50.90;;;;;;6101257;28;84324;-61
2024/03/02 03:33:34;;;;;;;16.75;11.00;;;24.00;50.80;;;;;;6102428;28;83943;-61
2024/03/02 03:36:34;;;;;;;16.63;10.40;;;24.00;51.00;;;;;;6093002;28;82964;-61
2024/03/02 03:39:38;;;;;;;15.68;10.82;;;24.00;50.90;;;;;;6100677;28;84770;-61
2024/03/02 03:42:39;;;;;;;15.75;10.70;;;24.00;50.90;;;;;;6100313;28;83482;-61
2024/03/02 03:45:39;;;;;;;15.73;10.45;;;24.00;50.50;;;;;;6100063;28;84972;-61
2024/03/02 03:48:40;;;;;;;16.45;10.02;;;24.00;50.60;;;;;;6090432;28;83382;-61
2024/03/02 03:51:40;;;;;;;16.65;11.43;;;24.00;50.60;;;;;;6089655;28;90029;-58
2024/03/02 03:54:42;;;;;;;15.95;9.65;;;24.00;50.70;;;;;;6103732;28;83794;-61
2024/03/02 03:57:43;;;;;;;16.50;10.50;;;24.00;50.80;;;;;;6104582;28;82961;-61
2024/03/02 04:00:43;;;;;;;16.08;11.25;;;23.90;50.70;;;;;;6102879;28;83151;-60
2024/03/02 04:03:44;;;;;;;15.15;10.43;;;23.90;50.80;;;;;;6101199;28;84294;-61
2024/03/02 04:06:45;;;;;;;14.00;9.55;;;23.90;50.70;;;;;;6102717;28;84267;-61
2024/03/02 04:09:45;;;;;;;17.25;11.77;;;24.00;51.00;;;;;;6105848;28;82874;-61
2024/03/02 04:12:46;;;;;;;18.02;12.10;;;24.00;50.50;;;;;;6102885;28;83607;-62
2024/03/02 04:15:47;;;;;;;17.65;11.80;;;24.00;50.50;;;;;;6101946;28;83131;-62
2024/03/02 04:18:47;;;;;;;14.73;10.23;;;24.00;50.30;;;;;;6100449;28;84015;-62
2024/03/02 04:21:48;;;;;;;19.20;11.68;;;24.00;49.80;;;;;;6099160;28;83161;-64
2024/03/02 04:24:48;;;;;;;19.00;12.73;;;24.10;49.70;;;;;;6079273;28;83610;-62
2024/03/02 04:27:49;;;;;;;17.08;12.23;;;24.10;49.60;;;;;;6090925;28;83050;-62
2024/03/02 04:30:49;;;;;;;18.75;11.65;;;24.10;49.60;;;;;;6101726;28;83321;-62
2024/03/02 04:33:50;;;;;;;18.30;11.23;;;24.10;49.60;;;;;;6081910;28;85677;-62
2024/03/02 04:36:50;;;;;;;19.17;11.85;;;24.10;49.40;;;;;;6099235;28;83508;-63
2024/03/02 04:39:51;;;;;;;16.95;10.43;;;24.20;49.40;;;;;;6101692;28;85783;-62
2024/03/02 04:42:52;;;;;;;16.80;10.95;;;24.20;49.40;;;;;;6101768;28;83353;-61
2024/03/02 04:45:52;;;;;;;19.88;11.35;;;24.20;49.40;;;;;;6101404;28;83289;-62
2024/03/02 04:48:55;;;;;;;14.25;10.25;;;24.20;49.30;;;;;;6099673;28;85228;-61
2024/03/02 04:51:56;;;;;;;18.80;11.70;;;24.20;49.20;;;;;;6102594;28;82820;-61
2024/03/02 04:55:09;;;;;;;17.38;11.27;;;24.20;49.20;;;;;;6101512;28;86780;-60
2024/03/02 04:58:10;;;;;;;15.52;10.13;;;24.20;49.10;;;;;;6100915;28;83801;-61
2024/03/02 05:01:10;;;;;;;17.17;11.07;;;24.20;49.10;;;;;;6099847;28;83458;-60
2024/03/02 05:04:11;;;;;;;14.55;10.07;;;24.30;49.10;;;;;;6102402;28;83905;-61
2024/03/02 05:07:12;;;;;;;16.63;10.55;;;24.30;49.00;;;;;;6101685;28;83356;-61
2024/03/02 05:10:12;;;;;;;12.75;9.82;;;24.30;49.00;;;;;;6079762;28;85301;-61
2024/03/02 05:13:13;;;;;;;14.65;10.25;;;24.30;48.80;;;;;;6081232;28;82970;-61
2024/03/02 05:16:13;;;;;;;17.60;11.02;;;24.30;48.90;;;;;;6091793;28;83984;-61
2024/03/02 05:19:14;;;;;;;15.82;10.93;;;24.30;48.80;;;;;;6095250;28;84006;-61
2024/03/02 05:22:15;;;;;;;13.93;9.93;;;24.30;48.70;;;;;;6088246;28;83314;-61
2024/03/02 05:25:15;;;;;;;15.02;10.75;;;24.30;48.80;;;;;;6104306;28;81538;-60
2024/03/02 05:28:16;;;;;;;17.63;10.27;;;24.30;48.80;;;;;;6084991;28;82793;-60
2024/03/02 05:31:18;;;;;;;15.07;10.48;;;24.30;49.40;;;;;;6083506;28;83436;-60
2024/03/02 05:34:18;;;;;;;15.32;9.88;;;24.40;48.90;;;;;;6087884;28;84082;-62
2024/03/02 05:37:19;;;;;;;12.20;8.82;;;24.40;48.80;;;;;;6103155;28;85000;-61
2024/03/02 05:40:20;;;;;;;14.70;9.43;;;24.40;48.80;;;;;;6105023;28;83546;-63
2024/03/02 05:43:21;;;;;;;14.50;10.10;;;24.40;49.00;;;;;;6092784;28;80529;-61
2024/03/02 05:46:22;;;;;;;16.77;9.95;;;24.40;48.90;;;;;;6095998;28;86009;-61
2024/03/02 05:49:22;;;;;;;15.32;10.57;;;24.40;48.80;;;;;;6090723;28;83726;-62
2024/03/02 05:52:23;;;;;;;16.30;10.82;;;24.40;48.70;;;;;;6092888;28;83183;-64
2024/03/02 05:55:23;;;;;;;16.42;10.05;;;24.40;48.90;;;;;;6087595;28;84044;-62
2024/03/02 06:01:28;;;;;;;12.77;8.68;;;24.40;48.80;;;;;;6091170;28;82840;-62
2024/03/02 06:04:28;;;;;;;14.77;9.70;;;24.40;48.80;;;;;;6095768;28;82467;-63
2024/03/02 06:07:29;;;;;;;14.45;8.75;;;24.40;48.90;;;;;;6103287;28;80410;-63
2024/03/02 06:10:29;;;;;;;16.60;10.05;;;24.40;48.90;;;;;;6086828;28;80408;-61
2024/03/02 06:13:31;;;;;;;15.95;10.48;;;24.40;48.80;;;;;;6078203;28;84117;-61
2024/03/02 06:16:31;;;;;;;15.10;10.13;;;24.40;48.90;;;;;;6078118;28;84572;-63
2024/03/02 06:19:32;;;;;;;17.80;10.25;;;24.40;49.00;;;;;;6078064;28;83099;-62
2024/03/02 06:22:32;;;;;;;15.45;10.95;;;24.40;48.90;;;;;;6077158;28;83206;-61
2024/03/02 06:25:33;;;;;;;15.93;10.63;;;24.40;48.80;;;;;;6088897;28;84294;-62
2024/03/02 06:28:34;;;;;;;16.17;10.45;;;24.40;49.10;;;;;;6098462;28;83220;-62
2024/03/02 06:31:35;;;;;;;18.27;10.82;;;24.40;49.20;;;;;;6098989;28;82889;-59
2024/03/02 06:34:35;;;;;;;14.77;9.82;;;24.40;49.30;;;;;;6099703;28;83229;-60
2024/03/02 06:37:36;;;;;;;14.60;9.70;;;24.40;49.20;;;;;;6103641;28;81956;-61
2024/03/02 06:40:38;;;;;;;16.38;10.30;;;24.40;49.20;;;;;;6104506;28;80507;-54
2024/03/02 06:43:38;;;;;;;15.48;10.73;;;24.40;49.20;;;;;;6099615;28;83490;-56
2024/03/02 06:46:39;;;;;;;16.77;10.77;;;24.40;49.20;;;;;;6098419;28;82930;-58
2024/03/02 06:49:39;;;;;;;14.18;10.32;;;24.30;48.80;;;;;;6099860;28;83514;-58
2024/03/02 06:52:40;;;;;;;17.30;10.60;;;24.30;49.00;;;;;;6100321;28;84184;-58
2024/03/02 06:55:41;;;;;;;14.77;10.18;;;24.30;49.50;;;;;;6095541;28;83105;-59
2024/03/02 06:58:42;;;;;;;16.33;10.77;;;24.30;49.80;;;;;;6099108;28;83640;-59
2024/03/02 07:01:43;;;;;;;15.60;10.73;;;24.40;49.50;;;;;;6095670;28;82871;-59
2024/03/02 07:04:45;;;;;;;16.35;10.95;;;24.40;49.50;;;;;;6103191;28;83010;-53
2024/03/02 07:07:45;;;;;;;16.08;10.05;;;24.30;49.70;;;;;;6103690;28;83186;-60
2024/03/02 07:10:46;;;;;;;16.38;10.63;;;24.40;49.90;;;;;;6103705;28;83311;-59
2024/03/02 07:13:47;;;;;;;19.45;11.20;;;24.40;50.00;;;;;;6104266;28;83605;-61
2024/03/02 07:16:47;;;;;;;24.20;11.40;;;24.40;50.10;;;;;;6102940;28;83379;-59
2024/03/02 07:19:48;;;;;;;20.65;11.80;;;24.40;50.40;;;;;;6101662;28;82918;-60
2024/03/02 07:22:49;;;;;;;20.83;10.98;;;24.40;50.40;;;;;;6088970;28;83786;-59
2024/03/02 07:25:49;;;;;;;20.48;10.50;;;24.40;50.80;;;;;;6101346;28;83706;-59
2024/03/02 07:28:50;;;;;;;19.10;10.23;;;24.40;51.30;;;;;;6102330;28;83450;-59
2024/03/02 07:31:51;;;;;;;17.80;10.55;;;24.50;51.50;;;;;;6099134;28;85292;-60
2024/03/02 07:34:51;;;;;;;20.00;10.25;;;24.50;52.00;;;;;;6095569;28;88109;-59
2024/03/02 07:37:52;;;;;;;16.02;10.60;;;24.50;52.40;;;;;;6102646;28;82894;-59
2024/03/02 07:40:55;;;;;;;14.55;9.68;;;24.50;52.20;;;;;;6102586;28;84663;-59
2024/03/02 07:43:56;;;;;;;17.25;9.65;;;24.50;52.40;;;;;;6098937;28;83519;-61
2024/03/02 07:46:57;;;;;;;16.05;9.52;;;24.50;52.60;;;;;;6096166;28;80221;-60
2024/03/02 07:49:57;;;;;;;15.82;10.10;;;24.50;52.60;;;;;;6101326;28;83138;-62
2024/03/02 07:52:58;;;;;;;16.02;10.07;;;24.50;52.40;;;;;;6102838;28;83544;-61
2024/03/02 07:56:02;;;;;;;14.85;8.93;;;24.50;52.10;;;;;;6101356;28;84255;-56
2024/03/02 07:59:02;;;;;;;18.48;9.10;;;24.50;52.20;;;;;;6102378;28;83009;-61
2024/03/02 08:02:03;;;;;;;23.02;9.80;;;24.50;52.20;;;;;;6093506;28;81183;-59
2024/03/02 08:05:04;;;;;;;20.40;9.57;;;24.50;52.40;;;;;;6093806;28;80895;-55
2024/03/02 08:08:04;;;;;;;15.93;9.85;;;24.40;52.40;;;;;;6097739;28;80978;-59
2024/03/02 08:11:05;;;;;;;17.27;9.68;;;24.50;52.10;;;;;;6101772;28;80753;-58
2024/03/02 08:14:05;;;;;;;20.80;9.75;;;24.50;52.30;;;;;;6103093;28;80373;-60
2024/03/02 08:17:09;;;;;;;16.25;9.80;;;24.40;52.30;;;;;;6099874;28;80866;-59
2024/03/02 08:20:09;;;;;;;13.18;9.02;;;24.40;52.20;;;;;;6106177;28;80507;-60
2024/03/02 08:23:10;;;;;;;14.15;9.77;;;24.40;52.10;;;;;;6083318;28;80590;-62
2024/03/02 08:26:10;;;;;;;21.35;10.45;;;24.40;52.60;;;;;;6103185;28;80550;-60
2024/03/02 08:29:11;;;;;;;14.82;9.88;;;24.40;52.50;;;;;;6099732;28;84719;-60
2024/03/02 08:32:12;;;;;;;13.48;9.35;;;24.40;51.70;;;;;;6101344;28;82774;-60
2024/03/02 08:35:13;;;;;;;14.50;10.68;;;24.40;52.80;;;;;;6105093;28;80378;-60
2024/03/02 08:38:13;;;;;;;12.38;9.30;;;24.40;52.50;;;;;;6095946;28;83696;-60
2024/03/02 08:41:15;;;;;;;13.63;9.10;;;24.40;52.80;;;;;;6092715;28;83527;-60
2024/03/02 08:44:16;;;;;;;15.40;9.57;;;24.40;52.40;;;;;;6105236;28;81664;-60
2024/03/02 08:47:16;;;;;;;16.90;10.75;;;24.40;52.20;;;;;;6097099;28;81160;-59
2024/03/02 08:50:17;;;;;;;16.52;10.45;;;24.50;52.60;;;;;;6098987;28;82929;-60
2024/03/02 08:53:18;;;;;;;17.05;10.50;;;24.50;53.20;;;;;;6100157;28;83343;-60
2024/03/02 08:56:20;;;;;;;13.60;9.98;;;24.50;52.50;;;;;;6096347;28;83178;-60
2024/03/02 08:59:20;;;;;;;16.58;9.93;;;24.60;52.70;;;;;;6091453;28;83528;-61
2024/03/02 09:02:21;;;;;;;15.80;9.90;;;24.60;52.70;;;;;;6102684;28;81681;-59
2024/03/02 09:05:22;;;;;;;13.23;9.27;;;24.60;52.70;;;;;;6103067;28;81228;-55
2024/03/02 09:08:22;;;;;;;14.43;9.10;;;24.60;52.60;;;;;;6103261;28;80958;-61
2024/03/02 09:11:23;;;;;;;15.63;10.10;;;24.60;52.50;;;;;;6101229;28;80336;-59
2024/03/02 09:14:24;;;;;;;15.02;9.32;;;24.60;52.50;;;;;;6071133;28;85344;-62
2024/03/02 09:17:24;;;;;;;12.07;9.05;;;24.60;52.50;;;;;;6095652;28;82838;-61
2024/03/02 09:20:25;;;;;;;13.02;9.18;;;24.60;52.50;;;;;;6083357;28;85017;-60
2024/03/02 09:23:25;;;;;;;18.48;8.88;;;24.60;52.80;;;;;;6087389;28;80952;-62
2024/03/02 09:26:26;;;;;;;10.82;8.10;;;24.60;52.70;;;;;;6097136;28;80924;-63
2024/03/02 09:29:27;;;;;;;15.50;9.70;;;24.60;52.80;;;;;;6094409;28;80594;-61
2024/03/02 09:32:27;;;;;;;13.93;9.20;;;24.60;52.70;;;;;;6095746;28;80729;-62
2024/03/02 09:35:28;;;;;;;12.77;7.97;;;24.60;52.70;;;;;;6099480;28;80676;-66
2024/03/02 09:38:28;;;;;;;15.30;8.85;;;24.50;52.60;;;;;;6091728;28;82826;-62
2024/03/02 09:41:29;;;;;;;12.88;8.07;;;24.50;52.60;;;;;;6099142;28;80868;-62
2024/03/02 09:44:29;;;;;;;13.07;8.43;;;24.50;52.60;;;;;;6103944;28;80550;-61
2024/03/02 09:47:30;;;;;;;12.07;8.23;;;24.40;52.10;;;;;;6097221;28;81179;-64
2024/03/02 09:50:30;;;;;;;13.55;8.82;;;24.40;52.40;;;;;;6095658;28;80401;-62
2024/03/02 09:53:31;;;;;;;12.65;8.02;;;24.40;51.90;;;;;;6089151;28;81760;-61
2024/03/02 09:56:31;;;;;;;13.82;8.68;;;24.40;51.90;;;;;;6095768;28;80679;-63
2024/03/02 09:59:32;;;;;;;11.13;8.00;;;24.40;51.80;;;;;;6093515;28;82283;-62
2024/03/02 10:02:33;;;;;;;13.13;9.05;;;24.40;52.10;;;;;;6102172;28;80351;-61
2024/03/02 10:05:33;;;;;;;14.02;8.27;;;24.40;52.10;;;;;;6104814;28;81488;-62
2024/03/02 10:08:34;;;;;;;14.93;8.43;;;24.40;52.00;;;;;;6103813;28;82552;-62
2024/03/02 10:11:36;;;;;;;13.05;8.95;;;24.40;52.20;;;;;;6086715;28;81713;-62
2024/03/02 10:14:37;;;;;;;13.90;8.52;;;24.40;52.10;;;;;;6103197;28;80656;-62
2024/03/02 10:17:38;;;;;;;12.63;9.00;;;24.40;51.90;;;;;;6104723;28;80756;-59
2024/03/02 10:20:38;;;;;;;12.38;8.63;;;24.40;51.90;;;;;;6105923;28;80434;-59
2024/03/02 10:23:39;;;;;;;11.70;7.97;;;24.40;51.90;;;;;;6085241;28;82064;-60
2024/03/02 10:26:39;;;;;;;12.60;9.35;;;24.40;51.80;;;;;;6102150;28;80701;-59
2024/03/02 10:29:40;;;;;;;12.07;8.07;;;24.40;51.90;;;;;;6104734;28;81265;-60
2024/03/02 10:32:41;;;;;;;13.18;9.32;;;24.50;52.00;;;;;;6104215;28;81409;-60
2024/03/02 10:35:41;;;;;;;10.13;7.78;;;24.50;52.00;;;;;;6105964;28;81665;-59
2024/03/02 10:38:42;;;;;;;11.70;8.10;;;24.40;52.00;;;;;;6108428;28;80969;-60
2024/03/02 10:41:42;;;;;;;14.57;9.25;;;24.40;52.00;;;;;;6106649;28;82333;-57
2024/03/02 10:44:43;;;;;;;11.10;8.77;;;24.40;51.80;;;;;;6109005;28;80899;-57
2024/03/02 10:47:44;;;;;;;12.85;8.18;;;24.50;52.00;;;;;;6109340;28;82006;-59
2024/03/02 10:50:45;;;;;;;11.40;8.38;;;24.50;51.80;;;;;;6109887;28;80994;-59
2024/03/02 10:53:45;;;;;;;12.68;8.27;;;24.50;51.90;;;;;;6106498;28;84083;-59
2024/03/02 10:56:46;;;;;;;14.57;8.65;;;24.50;51.80;;;;;;6107473;28;80500;-60
2024/03/02 10:59:46;;;;;;;13.05;8.57;;;24.50;51.90;;;;;;6108840;28;80750;-60
2024/03/02 11:02:47;;;;;;;13.35;9.00;;;24.50;51.90;;;;;;6108048;28;80874;-59
2024/03/02 11:05:48;;;;;;;16.02;8.90;;;24.60;51.90;;;;;;6102838;28;84335;-60
2024/03/02 11:08:49;;;;;;;14.52;8.93;;;24.60;51.90;;;;;;6108856;28;81655;-60
2024/03/02 11:11:49;;;;;;;11.02;7.70;;;24.60;51.90;;;;;;6107164;28;80559;-60
2024/03/02 11:14:50;;;;;;;13.85;8.80;;;24.60;52.10;;;;;;6109752;28;81027;-58
2024/03/02 11:17:51;;;;;;;12.30;8.77;;;24.60;51.90;;;;;;6108605;28;80695;-61
2024/03/02 11:20:51;;;;;;;14.43;9.38;;;24.60;52.00;;;;;;6109193;28;80506;-62
2024/03/02 11:23:52;;;;;;;12.15;8.05;;;24.60;52.50;;;;;;6083613;28;83648;-62
2024/03/02 11:26:52;;;;;;;14.10;8.75;;;24.50;52.00;;;;;;6102682;28;80442;-62
2024/03/02 11:29:54;;;;;;;14.48;9.35;;;24.60;52.10;;;;;;6108086;28;80311;-62
2024/03/02 11:32:54;;;;;;;17.73;9.23;;;24.50;51.90;;;;;;6107935;28;82739;-62
2024/03/02 11:35:55;;;;;;;14.75;8.88;;;24.50;51.80;;;;;;6107530;28;80548;-62
2024/03/02 11:38:56;;;;;;;12.43;8.55;;;24.50;51.90;;;;;;6117620;28;83433;-59
2024/03/02 11:41:57;;;;;;;14.73;8.57;;;24.60;52.20;;;;;;6097687;28;80377;-60
2024/03/02 11:44:57;;;;;;;20.40;9.25;;;24.60;52.20;;;;;;6108285;28;80686;-60
2024/03/02 11:47:59;;;;;;;18.90;9.85;;;24.60;52.20;;;;;;6082817;28;82455;-59
2024/03/02 11:51:00;;;;;;;27.25;12.57;;;24.60;53.40;;;;;;6084251;28;81809;-59
2024/03/02 11:54:00;;;;;;;29.65;14.20;;;24.60;53.40;;;;;;6083679;28;83604;-60
2024/03/02 11:57:01;;;;;;;71.18;24.50;;;24.60;53.70;;;;;;6082585;28;84028;-60
2024/03/02 12:00:03;;;;;;;102.70;34.15;;;24.60;54.60;;;;;;6082043;28;84538;-60
2024/03/02 12:03:05;;;;;;;139.05;36.10;;;24.70;56.50;;;;;;6081045;28;83298;-59
2024/03/02 12:06:06;;;;;;;116.15;38.58;;;24.70;55.70;;;;;;6083732;28;83605;-58
2024/03/02 12:09:06;;;;;;;117.57;39.85;;;24.70;55.80;;;;;;6080798;28;84843;-60
2024/03/02 12:12:07;;;;;;;137.13;47.13;;;24.70;56.00;;;;;;6065751;28;87494;-61
2024/03/02 12:15:07;;;;;;;129.27;45.95;;;24.60;56.60;;;;;;6084566;28;84522;-60
2024/03/02 12:18:08;;;;;;;138.55;49.90;;;24.60;56.50;;;;;;6085739;28;83489;-61
2024/03/02 12:21:08;;;;;;;131.95;48.70;;;24.60;56.50;;;;;;6079397;28;83943;-60
2024/03/02 12:24:09;;;;;;;130.00;45.08;;;24.50;56.30;;;;;;6083059;28;83756;-62
2024/03/02 12:27:09;;;;;;;125.72;46.15;;;24.50;56.20;;;;;;6083549;28;84261;-63
2024/03/02 12:30:10;;;;;;;100.28;37.95;;;24.40;55.70;;;;;;6080167;28;83609;-62
2024/03/02 12:33:11;;;;;;;97.85;37.00;;;24.40;55.10;;;;;;6082428;28;91671;-61
2024/03/02 12:36:12;;;;;;;103.22;36.63;;;24.40;55.00;;;;;;6078291;28;83948;-62
2024/03/02 12:39:12;;;;;;;78.63;31.80;;;24.40;54.50;;;;;;6089237;28;83199;-61
2024/03/02 12:42:13;;;;;;;70.90;29.15;;;24.40;54.90;;;;;;6096914;28;83437;-59
2024/03/02 12:45:13;;;;;;;73.40;29.13;;;24.50;55.20;;;;;;6098779;28;86428;-60
2024/03/02 12:48:14;;;;;;;75.28;27.98;;;24.60;55.50;;;;;;6098513;28;83173;-60
2024/03/02 12:51:15;;;;;;;73.55;28.45;;;24.60;56.00;;;;;;6097985;28;86028;-61
2024/03/02 12:54:15;;;;;;;64.47;26.60;;;24.70;56.70;;;;;;6098170;28;83102;-62
2024/03/02 12:57:16;;;;;;;65.90;25.02;;;24.70;56.60;;;;;;6098758;28;86385;-62
2024/03/02 13:00:16;;;;;;;57.08;23.98;;;24.70;57.20;;;;;;6095761;28;83515;-58
2024/03/02 13:03:18;;;;;;;51.75;21.92;;;24.80;58.40;;;;;;6100348;28;83214;-59
2024/03/02 13:06:18;;;;;;;45.15;21.17;;;24.80;58.10;;;;;;6097079;28;83231;-58
2024/03/02 13:09:19;;;;;;;43.53;20.58;;;24.70;56.10;;;;;;6101913;28;83136;-57
2024/03/02 13:12:20;;;;;;;36.15;20.77;;;24.60;56.40;;;;;;6100623;28;83370;-57
2024/03/02 13:15:20;;;;;;;51.63;20.33;;;24.40;54.30;;;;;;6094552;28;83198;-55
2024/03/02 13:18:21;;;;;;;40.20;19.45;;;24.30;58.00;;;;;;6100706;28;85635;-55
2024/03/02 13:21:21;;;;;;;34.90;19.15;;;24.20;61.00;;;;;;6099573;28;83867;-58
2024/03/02 13:24:24;;;;;;;31.02;16.48;;;24.20;55.50;;;;;;6101330;28;82939;-59
2024/03/02 13:27:24;;;;;;;35.45;17.80;;;24.20;56.30;;;;;;6089712;28;83619;-59
2024/03/02 13:30:25;;;;;;;29.98;15.20;;;24.20;56.60;;;;;;6084305;28;82933;-59
2024/03/02 13:33:25;;;;;;;30.30;14.65;;;24.20;56.50;;;;;;6089128;28;83976;-58
2024/03/02 13:36:26;;;;;;;35.97;16.75;;;24.30;57.30;;;;;;6094901;28;85150;-59
2024/03/02 13:39:27;;;;;;;28.50;17.38;;;24.30;56.00;;;;;;6098742;28;83965;-58
2024/03/02 13:42:27;;;;;;;32.92;16.90;;;24.20;55.50;;;;;;6098362;28;84388;-59
2024/03/02 13:45:28;;;;;;;25.63;16.33;;;24.20;54.40;;;;;;6082868;28;83340;-58
2024/03/02 13:48:28;;;;;;;30.88;16.98;;;24.20;54.70;;;;;;6088452;28;85517;-59
2024/03/02 13:51:29;;;;;;;27.33;16.38;;;24.20;54.30;;;;;;6099054;28;83411;-59
2024/03/02 13:54:30;;;;;;;29.10;17.20;;;24.20;54.00;;;;;;6097089;28;83885;-60
2024/03/02 13:57:30;;;;;;;31.45;16.35;;;24.10;53.90;;;;;;6094540;28;86738;-59
2024/03/02 14:00:31;;;;;;;28.02;16.02;;;24.10;53.70;;;;;;6099866;28;83136;-59
2024/03/02 14:03:32;;;;;;;26.60;16.48;;;24.10;53.80;;;;;;6095186;28;83554;-59
2024/03/02 14:06:32;;;;;;;27.42;15.98;;;24.10;53.60;;;;;;6100133;28;83204;-59
2024/03/02 14:09:33;;;;;;;23.88;15.75;;;24.10;53.40;;;;;;6101577;28;83748;-59
2024/03/02 14:12:33;;;;;;;25.65;15.73;;;24.10;53.50;;;;;;6089078;28;83443;-58
2024/03/02 14:15:38;;;;;;;29.17;15.50;;;24.10;53.40;;;;;;6101504;28;83565;-59
2024/03/02 14:18:39;;;;;;;31.98;16.27;;;24.10;53.20;;;;;;6100875;28;83395;-62
2024/03/02 14:21:39;;;;;;;25.13;14.95;;;24.00;53.20;;;;;;6092305;28;83550;-65
2024/03/02 14:24:40;;;;;;;23.17;14.32;;;24.10;53.80;;;;;;6087828;28;87653;-62
2024/03/02 14:27:40;;;;;;;25.25;15.10;;;24.10;54.20;;;;;;6098818;28;85931;-63
2024/03/02 14:30:41;;;;;;;22.52;14.35;;;24.10;54.70;;;;;;6098442;28;86720;-62
2024/03/02 14:33:42;;;;;;;19.25;12.88;;;24.10;55.30;;;;;;6082345;28;85234;-62
2024/03/02 14:36:45;;;;;;;19.77;13.68;;;24.20;55.80;;;;;;6099720;28;83219;-62
2024/03/02 14:39:46;;;;;;;20.38;12.30;;;24.20;55.90;;;;;;6097862;28;87770;-62
2024/03/02 14:42:48;;;;;;;22.33;12.57;;;24.20;56.20;;;;;;6089169;28;85880;-61
2024/03/02 14:45:48;;;;;;;21.17;12.10;;;24.30;56.50;;;;;;6079404;28;82914;-60
2024/03/02 14:48:49;;;;;;;17.40;11.02;;;24.20;56.70;;;;;;6090141;28;85396;-62
2024/03/02 14:51:49;;;;;;;18.60;11.93;;;24.30;57.10;;;;;;6092480;28;83007;-62
2024/03/02 14:54:50;;;;;;;23.08;11.75;;;24.30;57.20;;;;;;6095704;28;85557;-60
2024/03/02 14:57:50;;;;;;;16.63;9.85;;;24.30;57.30;;;;;;6100451;28;82926;-60
2024/03/02 15:00:51;;;;;;;19.17;10.95;;;24.30;57.70;;;;;;6101225;28;83632;-61
2024/03/02 15:03:51;;;;;;;15.25;10.80;;;24.40;58.00;;;;;;6099671;28;86260;-62
2024/03/02 15:06:52;;;;;;;16.58;10.93;;;24.40;58.20;;;;;;6099188;28;84025;-59
2024/03/02 15:09:53;;;;;;;16.45;10.68;;;24.40;58.20;;;;;;6100238;28;84539;-60
2024/03/02 15:12:54;;;;;;;19.52;11.13;;;24.40;58.20;;;;;;6098405;28;83513;-60
2024/03/02 15:15:55;;;;;;;15.27;9.98;;;24.40;58.20;;;;;;6089357;28;83820;-60
2024/03/02 15:18:55;;;;;;;18.13;11.32;;;24.40;58.50;;;;;;6092206;28;83210;-61
2024/03/02 15:21:56;;;;;;;18.17;11.63;;;24.40;58.80;;;;;;6088616;28;83898;-62
2024/03/02 15:24:56;;;;;;;15.90;10.20;;;24.50;58.80;;;;;;6097799;28;83116;-62